KFWS

Fort Worth Spinks Airport

Fort Worth, Texas, USA
METAR KFWS 151350Z 32004KT 10SM CLR 02/M02 A3033
Observed Flight Rules
Dec-15 @ 13:50 UTC (20 minutes ago) Visual Flight Rules
Wind Visibility Clouds
320° at 4 knots 10 miles
  • Clear skies
Temperatures Readings
Current 2°C / 36°F
Dewpoint -2°C / 28°F
Humidity 75%
Altimeter 30.33" Hg
Pressure 1027 hPa
Elevation 208
METAR KFWS 151350Z 32004KT 10SM CLR 02/M02 A3033
Observed Flight Rules
Dec-15 @ 13:50 UTC
(20 minutes ago)
VFR
Wind Visibility
320° at 4 knots 10 miles
Clouds
  • Clear skies
Temperature Dewpoint
2°C / 36°F -2°C / 28°F
Humidity Altimeter Pressure
75% 30.33" Hg 1027 hPa